Time;durP1;ratioP1;P1;durP2;ratioP2;P2;SDS_P1;SDS_P2;PMS_P1;PMS_P2;Temp;Humidity;BMP_temperature;BMP_pressure;BME280_temperature;BME280_humidity;BME280_pressure;Samples;Min_cycle;Max_cycle;Signal;HPM_P1;HPM_P2
2022/08/18 00:04:51;;;;;;;8.30;7.70;;;22.10;92.10;;;;;;10481100;28;20194;-79
2022/08/18 00:09:54;;;;;;;8.90;8.33;;;22.10;92.20;;;;;;10470906;28;20362;-78
2022/08/18 00:15:00;;;;;;;9.27;8.67;;;22.00;92.30;;;;;;10495408;28;20648;-79
2022/08/18 00:20:04;;;;;;;9.50;8.70;;;21.90;93.70;;;;;;10467514;28;20271;-80
2022/08/18 00:25:09;;;;;;;9.80;9.10;;;21.80;93.80;;;;;;10460759;28;20540;-80
2022/08/18 00:30:15;;;;;;;9.33;8.47;;;21.70;93.80;;;;;;10520293;28;20243;-79
2022/08/18 00:35:20;;;;;;;9.23;8.43;;;21.50;93.70;;;;;;10490682;28;20244;-80
2022/08/18 00:40:29;;;;;;;8.90;8.30;;;21.50;94.80;;;;;;10462080;28;20293;-80
2022/08/18 00:45:35;;;;;;;8.87;8.27;;;21.50;94.10;;;;;;10472385;28;20197;-80
2022/08/18 00:50:40;;;;;;;8.67;8.13;;;21.60;94.50;;;;;;10479954;28;20633;-80
2022/08/18 00:55:47;;;;;;;9.10;8.33;;;21.70;94.90;;;;;;10487121;28;20319;-80
2022/08/18 01:00:51;;;;;;;7.67;7.17;;;21.70;94.70;;;;;;10491696;28;20242;-80
2022/08/18 01:05:57;;;;;;;8.50;7.90;;;21.80;93.80;;;;;;10502089;28;20240;-80
2022/08/18 01:11:02;;;;;;;8.33;7.73;;;21.80;93.70;;;;;;10471779;28;20193;-80
2022/08/18 01:26:49;;;;;;;9.03;8.10;;;22.00;93.50;;;;;;10488348;28;20231;-79
2022/08/18 01:31:54;;;;;;;8.10;7.40;;;21.90;93.10;;;;;;10459508;28;20198;-78
2022/08/18 01:36:57;;;;;;;8.13;7.33;;;21.80;93.20;;;;;;10472746;28;20582;-79
2022/08/18 01:42:03;;;;;;;7.90;7.40;;;21.80;92.50;;;;;;10473097;28;20213;-78
2022/08/18 01:47:05;;;;;;;7.57;7.00;;;21.70;93.10;;;;;;10472593;28;20223;-79
2022/08/18 01:52:07;;;;;;;8.20;7.50;;;21.70;93.70;;;;;;10474015;28;20193;-80
2022/08/18 01:57:13;;;;;;;8.20;7.60;;;21.60;92.70;;;;;;10488620;28;20224;-79
2022/08/18 02:02:23;;;;;;;8.20;7.70;;;21.60;93.10;;;;;;10483797;28;20208;-79
2022/08/18 02:07:25;;;;;;;8.60;8.03;;;21.50;93.50;;;;;;10480552;28;20204;-79
2022/08/18 02:12:28;;;;;;;8.33;7.73;;;21.40;93.40;;;;;;10465861;28;20193;-79
2022/08/18 02:17:37;;;;;;;8.60;8.00;;;21.40;94.00;;;;;;10478926;28;20299;-79
2022/08/18 02:22:39;;;;;;;8.37;7.87;;;21.40;93.70;;;;;;10482000;28;20286;-79
2022/08/18 02:27:43;;;;;;;8.43;7.80;;;21.30;94.10;;;;;;10494136;28;20242;-79
2022/08/18 02:32:45;;;;;;;7.80;7.40;;;21.40;94.40;;;;;;10462689;28;20189;-79
2022/08/18 02:37:47;;;;;;;8.40;7.90;;;21.40;94.40;;;;;;10478011;28;20221;-78
2022/08/18 02:42:51;;;;;;;8.77;8.07;;;21.40;94.20;;;;;;10447359;28;20248;-79
2022/08/18 02:47:54;;;;;;;7.67;7.17;;;21.40;94.10;;;;;;10475529;28;20224;-79
2022/08/18 02:52:56;;;;;;;8.33;7.83;;;21.40;94.20;;;;;;10484468;28;20197;-80
2022/08/18 02:58:02;;;;;;;8.20;7.67;;;21.50;93.40;;;;;;10506349;28;20228;-80
2022/08/18 03:03:04;;;;;;;7.57;7.07;;;21.60;93.70;;;;;;10456550;28;20271;-80
2022/08/18 03:08:10;;;;;;;8.50;8.00;;;21.70;93.20;;;;;;10500853;28;20224;-80
2022/08/18 03:13:13;;;;;;;8.20;7.70;;;21.70;93.20;;;;;;10495185;28;20189;-80
2022/08/18 03:18:15;;;;;;;9.23;8.53;;;21.80;93.40;;;;;;10467226;28;20223;-80
2022/08/18 03:23:18;;;;;;;6.73;6.23;;;21.80;93.10;;;;;;10491888;28;20217;-80
2022/08/18 03:28:21;;;;;;;8.67;8.07;;;21.90;93.40;;;;;;10489422;28;20282;-79
2022/08/18 03:33:23;;;;;;;8.10;7.60;;;21.90;92.90;;;;;;10491515;28;20217;-80
2022/08/18 03:38:25;;;;;;;8.60;8.00;;;21.90;92.80;;;;;;10487396;28;20216;-80
2022/08/18 03:43:30;;;;;;;8.53;8.00;;;21.90;92.50;;;;;;10491169;28;20219;-79
2022/08/18 03:48:33;;;;;;;10.10;9.30;;;21.70;93.20;;;;;;10482160;28;20248;-80
2022/08/18 03:53:35;;;;;;;8.07;7.57;;;21.70;93.00;;;;;;10489533;28;20197;-79
2022/08/18 03:58:38;;;;;;;9.40;8.73;;;21.60;93.10;;;;;;10485900;28;20227;-79
2022/08/18 04:03:41;;;;;;;9.00;8.40;;;21.60;92.80;;;;;;10484285;28;20705;-79
2022/08/18 04:08:45;;;;;;;9.27;8.67;;;21.40;93.00;;;;;;10463098;28;20655;-80
2022/08/18 04:13:48;;;;;;;9.93;9.33;;;21.40;93.50;;;;;;10462239;28;20685;-80
2022/08/18 04:18:50;;;;;;;9.37;8.83;;;21.40;93.30;;;;;;10449379;28;20562;-78
2022/08/18 04:23:53;;;;;;;10.33;9.67;;;21.40;93.20;;;;;;10486938;28;20251;-79
2022/08/18 04:28:56;;;;;;;8.83;8.13;;;21.30;93.70;;;;;;10498895;28;20242;-79
2022/08/18 04:34:00;;;;;;;9.37;8.77;;;21.30;93.80;;;;;;10484418;28;20232;-79
2022/08/18 04:39:05;;;;;;;9.03;8.53;;;21.30;93.10;;;;;;10465352;28;20212;-78
2022/08/18 04:44:11;;;;;;;10.00;9.30;;;21.30;93.30;;;;;;10464641;28;20205;-78
2022/08/18 04:49:14;;;;;;;9.00;8.20;;;21.30;93.30;;;;;;10462326;28;20328;-79
2022/08/18 04:54:16;;;;;;;9.57;8.97;;;21.30;93.70;;;;;;10441711;28;20296;-78
2022/08/18 04:59:20;;;;;;;9.43;8.83;;;21.30;93.60;;;;;;10475103;28;20245;-79
2022/08/18 05:04:24;;;;;;;10.10;9.30;;;21.30;94.00;;;;;;10450515;28;20203;-79
2022/08/18 05:09:26;;;;;;;10.77;10.10;;;21.40;93.90;;;;;;10463469;28;20219;-79
2022/08/18 05:14:30;;;;;;;10.57;9.87;;;21.40;93.30;;;;;;10441701;28;20193;-79
2022/08/18 05:19:34;;;;;;;10.60;9.90;;;21.60;93.50;;;;;;10467107;28;20597;-79
2022/08/18 05:24:37;;;;;;;10.57;9.83;;;21.70;93.60;;;;;;10446629;28;20204;-79
2022/08/18 05:29:40;;;;;;;11.93;10.87;;;21.80;93.40;;;;;;10459738;28;20223;-79
2022/08/18 05:34:47;;;;;;;10.33;9.63;;;22.00;93.40;;;;;;10480888;28;20220;-79
2022/08/18 05:39:57;;;;;;;10.03;9.27;;;22.10;93.00;;;;;;10462975;28;20337;-79
2022/08/18 05:45:03;;;;;;;9.97;9.37;;;22.20;92.50;;;;;;10485590;28;20239;-79
2022/08/18 05:50:07;;;;;;;9.40;8.80;;;22.20;92.50;;;;;;10458979;28;20685;-79
2022/08/18 06:00:36;;;;;;;9.70;9.00;;;22.40;92.20;;;;;;10481104;28;20215;-80
2022/08/18 06:05:52;;;;;;;10.20;9.50;;;22.50;91.70;;;;;;10473237;28;20216;-79
2022/08/18 06:10:54;;;;;;;10.30;9.40;;;22.60;91.30;;;;;;10479840;28;20648;-79
2022/08/18 06:16:05;;;;;;;10.53;9.80;;;22.70;91.50;;;;;;10450760;28;20224;-80
2022/08/18 06:21:25;;;;;;;10.60;9.73;;;22.80;91.60;;;;;;10478458;28;20697;-79
2022/08/18 06:26:38;;;;;;;10.00;9.13;;;23.00;91.00;;;;;;10460363;28;20232;-79
2022/08/18 06:31:50;;;;;;;10.20;9.60;;;23.00;90.80;;;;;;10463490;28;20290;-79
2022/08/18 06:36:55;;;;;;;11.10;8.03;;;23.20;91.00;;;;;;10485955;28;20320;-80
2022/08/18 06:41:57;;;;;;;10.23;9.53;;;23.30;90.60;;;;;;10452898;28;20232;-79
2022/08/18 06:47:07;;;;;;;9.80;9.20;;;23.40;90.20;;;;;;10473755;28;20213;-79
2022/08/18 06:52:22;;;;;;;10.37;9.57;;;23.50;90.30;;;;;;10474405;28;20184;-79
2022/08/18 06:57:28;;;;;;;9.40;8.67;;;23.70;90.20;;;;;;10511759;28;20279;-80
2022/08/18 07:02:48;;;;;;;10.77;10.07;;;23.80;89.80;;;;;;10510801;28;20216;-79
2022/08/18 07:08:13;;;;;;;10.87;9.97;;;23.90;89.30;;;;;;10469701;28;20217;-79
2022/08/18 07:13:22;;;;;;;10.93;10.20;;;24.00;87.60;;;;;;10476730;28;20196;-79
2022/08/18 07:18:28;;;;;;;9.80;9.10;;;24.00;86.00;;;;;;10483820;28;20707;-79
2022/08/18 07:23:33;;;;;;;10.50;9.80;;;24.00;87.60;;;;;;10477028;28;20680;-79
2022/08/18 07:28:38;;;;;;;8.27;7.67;;;24.10;87.60;;;;;;10509268;28;20352;-79
2022/08/18 07:33:46;;;;;;;10.67;9.90;;;24.20;88.70;;;;;;10489021;28;20260;-79
2022/08/18 07:38:52;;;;;;;10.10;9.40;;;24.20;87.30;;;;;;10487275;28;20266;-78
2022/08/18 07:44:05;;;;;;;11.00;10.20;;;24.20;85.50;;;;;;10453976;28;20335;-78
2022/08/18 07:49:08;;;;;;;8.77;8.13;;;24.10;86.60;;;;;;10488305;28;20255;-81
2022/08/18 07:54:22;;;;;;;9.90;9.10;;;24.00;87.60;;;;;;10467276;28;20192;-79
2022/08/18 07:59:33;;;;;;;9.67;9.07;;;24.00;87.70;;;;;;10507139;28;20272;-81
2022/08/18 08:04:44;;;;;;;8.77;8.27;;;23.90;86.70;;;;;;10442640;28;20217;-79
2022/08/18 08:09:53;;;;;;;11.43;10.10;;;23.90;87.80;;;;;;10478815;28;20220;-81
2022/08/18 08:15:05;;;;;;;9.87;9.20;;;23.80;86.90;;;;;;10458515;28;20279;-79
2022/08/18 08:20:25;;;;;;;8.90;8.30;;;23.80;88.50;;;;;;10499384;28;20262;-80
2022/08/18 08:25:33;;;;;;;10.33;9.57;;;23.70;85.90;;;;;;10493936;28;20230;-81
2022/08/18 08:30:42;;;;;;;10.13;9.50;;;23.70;87.30;;;;;;10507159;28;20200;-80
2022/08/18 08:35:51;;;;;;;9.80;9.20;;;23.80;87.20;;;;;;10453853;28;20217;-80
2022/08/18 08:40:59;;;;;;;10.97;10.13;;;23.90;86.40;;;;;;10487233;28;20885;-79
2022/08/18 08:46:09;;;;;;;10.17;9.47;;;24.00;86.70;;;;;;10474083;28;20591;-79
2022/08/18 08:51:29;;;;;;;8.60;7.90;;;24.30;86.40;;;;;;10498320;28;20594;-79
2022/08/18 08:56:36;;;;;;;10.20;9.47;;;24.60;85.20;;;;;;10497654;28;20339;-80
2022/08/18 09:01:45;;;;;;;10.53;9.80;;;24.80;85.30;;;;;;10498425;28;20205;-79
2022/08/18 09:06:59;;;;;;;10.00;9.40;;;25.00;83.10;;;;;;10465287;28;20217;-80
2022/08/18 09:12:28;;;;;;;9.90;9.20;;;25.20;83.80;;;;;;10504901;28;20985;-80
2022/08/18 09:17:48;;;;;;;10.53;9.80;;;25.20;83.70;;;;;;10457904;28;20219;-79
2022/08/18 09:22:58;;;;;;;9.97;9.37;;;25.40;83.60;;;;;;10500949;28;20215;-79
2022/08/18 09:28:11;;;;;;;11.00;10.30;;;25.80;83.50;;;;;;10510426;28;20220;-80
2022/08/18 09:33:19;;;;;;;10.00;9.37;;;26.00;81.50;;;;;;10499060;28;20193;-79
2022/08/18 09:44:08;;;;;;;10.30;9.67;;;26.40;82.20;;;;;;10493051;28;20693;-80
2022/08/18 09:49:40;;;;;;;10.23;9.53;;;26.80;80.30;;;;;;10457334;28;20250;-80
2022/08/18 09:54:52;;;;;;;9.33;8.80;;;27.10;79.10;;;;;;10473723;28;20203;-80
2022/08/18 09:59:59;;;;;;;10.60;9.90;;;27.20;79.20;;;;;;10494114;28;20251;-80
2022/08/18 10:05:25;;;;;;;10.33;9.50;;;27.40;79.70;;;;;;10459395;28;20672;-79
2022/08/18 10:10:36;;;;;;;9.70;9.00;;;27.40;79.60;;;;;;10454972;28;20740;-79
2022/08/18 10:15:59;;;;;;;11.50;10.60;;;27.60;79.60;;;;;;10474626;28;20213;-78
2022/08/18 10:21:09;;;;;;;10.63;9.83;;;27.80;79.20;;;;;;10481832;28;20293;-79
2022/08/18 10:26:45;;;;;;;11.33;10.30;;;27.80;78.30;;;;;;10480803;28;20228;-83
2022/08/18 10:32:22;;;;;;;10.60;10.00;;;27.80;77.20;;;;;;10502718;28;20193;-79
2022/08/18 10:37:29;;;;;;;12.40;11.60;;;27.80;77.90;;;;;;10425503;28;20779;-80
2022/08/18 10:42:35;;;;;;;12.10;11.30;;;27.50;77.60;;;;;;10472975;28;20292;-79
2022/08/18 10:47:40;;;;;;;11.03;10.23;;;27.20;78.20;;;;;;10480110;28;20289;-81
2022/08/18 10:53:00;;;;;;;11.70;10.90;;;27.10;78.90;;;;;;10482093;28;20234;-78
2022/08/18 10:58:20;;;;;;;12.23;11.33;;;27.00;79.40;;;;;;10479752;28;20299;-79
2022/08/18 11:03:38;;;;;;;11.60;10.67;;;27.00;78.80;;;;;;10461486;28;20221;-79
2022/08/18 11:08:44;;;;;;;11.90;10.80;;;26.90;78.50;;;;;;10494722;28;20312;-78
2022/08/18 11:13:59;;;;;;;11.40;10.50;;;26.90;78.30;;;;;;10441207;28;20221;-78
2022/08/18 11:19:10;;;;;;;10.80;10.10;;;26.90;78.20;;;;;;10477805;28;20212;-78
2022/08/18 11:24:16;;;;;;;12.20;11.30;;;27.00;78.60;;;;;;10444216;28;20228;-81
2022/08/18 11:29:36;;;;;;;11.77;10.90;;;27.00;76.80;;;;;;10456667;28;20235;-80
2022/08/18 11:34:43;;;;;;;11.13;10.43;;;27.10;77.70;;;;;;10469639;28;20272;-80
2022/08/18 11:39:50;;;;;;;13.57;12.37;;;27.10;77.70;;;;;;10504853;28;20208;-81
2022/08/18 11:44:54;;;;;;;12.50;11.50;;;27.30;76.60;;;;;;10451689;28;20224;-81
2022/08/18 11:50:06;;;;;;;11.23;10.23;;;27.40;76.60;;;;;;10488048;28;20660;-79
2022/08/18 11:55:20;;;;;;;13.47;12.47;;;27.30;76.50;;;;;;10481181;28;20204;-80
2022/08/18 12:00:57;;;;;;;14.50;12.47;;;27.30;75.90;;;;;;10487473;28;20259;-81
2022/08/18 12:06:11;;;;;;;11.70;11.00;;;27.40;76.80;;;;;;10363673;28;20622;-80
2022/08/18 12:11:19;;;;;;;11.63;10.83;;;27.40;75.30;;;;;;10455590;28;20197;-81
2022/08/18 12:16:33;;;;;;;11.67;10.87;;;27.40;74.80;;;;;;10475495;28;20299;-80
2022/08/18 12:21:40;;;;;;;12.23;11.17;;;27.30;75.70;;;;;;10482075;28;20219;-79
2022/08/18 12:26:43;;;;;;;11.70;10.90;;;27.30;73.60;;;;;;10481010;28;20236;-81
2022/08/18 12:31:45;;;;;;;9.10;8.40;;;27.20;74.40;;;;;;10496835;28;20646;-78
2022/08/18 12:36:48;;;;;;;13.90;12.80;;;27.10;74.70;;;;;;10476844;28;20212;-81
2022/08/18 12:41:50;;;;;;;12.67;11.77;;;27.10;75.00;;;;;;10506696;28;20215;-81
2022/08/18 12:46:53;;;;;;;11.50;10.80;;;27.00;76.40;;;;;;10496328;28;20222;-81
2022/08/18 12:51:56;;;;;;;10.80;9.90;;;26.90;73.80;;;;;;10484315;28;20185;-81
2022/08/18 12:56:58;;;;;;;12.00;11.10;;;26.70;74.60;;;;;;10490798;28;20283;-81
2022/08/18 13:02:00;;;;;;;10.97;10.00;;;26.70;73.80;;;;;;10496603;28;20229;-80
2022/08/18 13:07:06;;;;;;;11.00;10.30;;;26.60;74.60;;;;;;10473124;28;20649;-81
2022/08/18 13:12:09;;;;;;;12.73;11.83;;;26.60;74.40;;;;;;10508500;28;20185;-79
2022/08/18 13:17:12;;;;;;;11.60;10.70;;;26.50;74.10;;;;;;10472884;28;20291;-81
2022/08/18 13:22:15;;;;;;;12.20;11.37;;;26.40;74.50;;;;;;10477820;28;20232;-81
2022/08/18 13:27:21;;;;;;;11.67;10.90;;;26.40;74.20;;;;;;10498355;28;20224;-80
2022/08/18 13:32:24;;;;;;;12.13;11.33;;;26.40;73.90;;;;;;10477381;28;20213;-80
2022/08/18 13:37:32;;;;;;;12.03;11.03;;;26.50;74.20;;;;;;10461634;28;20235;-79
2022/08/18 13:42:42;;;;;;;12.20;11.40;;;26.60;74.80;;;;;;10487547;28;20578;-80
2022/08/18 13:47:44;;;;;;;11.10;10.17;;;26.70;75.30;;;;;;10444229;28;20216;-79
2022/08/18 13:52:48;;;;;;;11.37;10.50;;;26.90;74.90;;;;;;10465432;28;20296;-78
2022/08/18 13:57:51;;;;;;;10.70;10.00;;;27.10;73.80;;;;;;10468290;28;20677;-79
2022/08/18 14:02:55;;;;;;;11.53;10.73;;;27.10;73.10;;;;;;10483765;28;20217;-80
2022/08/18 14:07:59;;;;;;;10.57;9.87;;;27.20;72.30;;;;;;10457779;28;20331;-79
2022/08/18 14:13:01;;;;;;;11.10;10.20;;;27.10;72.30;;;;;;10466196;28;20239;-79
2022/08/18 14:18:03;;;;;;;8.60;8.00;;;27.10;71.40;;;;;;10422059;28;20300;-79
2022/08/18 14:28:27;;;;;;;10.47;9.63;;;27.20;71.50;;;;;;10490073;28;20307;-80
2022/08/18 14:33:31;;;;;;;10.80;10.10;;;27.30;71.60;;;;;;10472032;28;20288;-80
2022/08/18 14:38:35;;;;;;;9.97;9.37;;;27.30;71.50;;;;;;10490676;28;20224;-79
2022/08/18 14:43:37;;;;;;;10.43;9.60;;;27.40;71.00;;;;;;10455608;28;20231;-78
2022/08/18 14:48:40;;;;;;;9.73;9.13;;;27.40;69.90;;;;;;10465309;28;20308;-79
2022/08/18 14:53:43;;;;;;;9.60;9.00;;;27.40;70.00;;;;;;10438814;28;20200;-79
2022/08/18 14:58:45;;;;;;;9.63;9.03;;;27.40;70.90;;;;;;10490857;28;20240;-78
2022/08/18 15:03:47;;;;;;;10.13;9.43;;;27.50;71.30;;;;;;10494403;28;20213;-80
2022/08/18 15:08:51;;;;;;;10.00;9.40;;;27.50;71.20;;;;;;10473735;28;20212;-80
2022/08/18 15:13:53;;;;;;;10.50;9.60;;;27.50;71.40;;;;;;10468815;28;20217;-81
2022/08/18 15:18:55;;;;;;;9.10;8.40;;;27.50;71.90;;;;;;10457320;28;20295;-81
2022/08/18 15:29:18;;;;;;;8.67;8.00;;;27.50;68.90;;;;;;10508913;28;20244;-81
2022/08/18 15:34:21;;;;;;;10.27;9.57;;;27.50;69.00;;;;;;10501887;28;20186;-81
2022/08/18 15:39:25;;;;;;;10.30;9.60;;;27.40;69.50;;;;;;10452512;28;20221;-80
2022/08/18 15:44:29;;;;;;;10.30;9.70;;;27.40;69.40;;;;;;10497849;28;20216;-79
2022/08/18 15:49:31;;;;;;;8.60;7.90;;;27.40;69.60;;;;;;10464324;28;20218;-79
2022/08/18 15:54:35;;;;;;;10.70;9.80;;;27.30;70.10;;;;;;10477639;28;20250;-79
2022/08/18 15:59:37;;;;;;;10.57;9.87;;;27.30;70.00;;;;;;10489501;28;20213;-79
2022/08/18 16:04:40;;;;;;;10.90;10.20;;;27.30;70.50;;;;;;10441679;28;20236;-79
2022/08/18 16:09:43;;;;;;;10.33;9.73;;;27.20;70.70;;;;;;10481924;28;20209;-81
2022/08/18 16:14:45;;;;;;;9.33;8.63;;;27.20;71.00;;;;;;10473230;28;20628;-80
2022/08/18 16:19:48;;;;;;;10.60;9.90;;;27.20;70.00;;;;;;10483106;28;20330;-81
2022/08/18 16:24:52;;;;;;;9.87;8.87;;;27.20;70.80;;;;;;10467659;28;20251;-81
2022/08/18 16:29:55;;;;;;;9.33;8.53;;;27.20;70.80;;;;;;10503180;28;20275;-81
2022/08/18 16:34:57;;;;;;;8.83;8.13;;;27.10;71.30;;;;;;10457236;28;20200;-79
2022/08/18 16:40:01;;;;;;;8.23;7.70;;;27.10;70.60;;;;;;10507158;28;20331;-78
2022/08/18 16:45:05;;;;;;;8.43;7.93;;;27.00;71.30;;;;;;10473215;28;20251;-81
2022/08/18 16:50:09;;;;;;;9.63;8.83;;;26.90;70.30;;;;;;10515733;28;20685;-78
2022/08/18 16:55:13;;;;;;;8.73;8.13;;;26.80;70.50;;;;;;10486390;28;20200;-81
2022/08/18 17:05:35;;;;;;;10.23;9.53;;;26.70;72.60;;;;;;10450547;28;20558;-81
2022/08/18 17:10:40;;;;;;;10.80;10.10;;;26.60;73.90;;;;;;10501852;28;20239;-81
2022/08/18 17:15:42;;;;;;;10.83;10.13;;;26.50;75.90;;;;;;10466367;28;20220;-81
2022/08/18 17:20:44;;;;;;;11.90;11.10;;;26.40;75.80;;;;;;10480996;28;20618;-81
2022/08/18 17:25:49;;;;;;;10.87;9.97;;;26.30;76.00;;;;;;10479101;28;20212;-81
2022/08/18 17:30:52;;;;;;;10.27;9.57;;;26.30;76.00;;;;;;10482632;28;20228;-81
2022/08/18 17:35:57;;;;;;;10.87;10.10;;;26.20;76.60;;;;;;10447442;28;20311;-80
2022/08/18 17:41:02;;;;;;;10.80;10.00;;;26.10;77.20;;;;;;10474986;28;20197;-80
2022/08/18 17:46:08;;;;;;;10.97;10.10;;;26.00;77.70;;;;;;10460217;28;20299;-80
2022/08/18 17:56:42;;;;;;;11.10;10.40;;;25.80;78.70;;;;;;10470459;28;20220;-80
2022/08/18 18:01:44;;;;;;;11.17;10.33;;;25.80;78.80;;;;;;10499161;28;20201;-80
2022/08/18 18:06:46;;;;;;;12.37;11.57;;;25.70;79.20;;;;;;10473158;28;20347;-80
2022/08/18 18:11:50;;;;;;;12.10;11.30;;;25.70;78.90;;;;;;10499797;28;20193;-80
2022/08/18 18:17:07;;;;;;;14.27;13.20;;;25.60;79.90;;;;;;10470040;28;20212;-81
2022/08/18 18:22:17;;;;;;;14.13;13.07;;;25.60;78.80;;;;;;10497400;28;20228;-82
2022/08/18 18:27:28;;;;;;;14.77;13.43;;;25.50;79.70;;;;;;10503568;28;20292;-82
2022/08/18 18:32:35;;;;;;;14.23;13.20;;;25.40;79.60;;;;;;10492471;28;20197;-81
2022/08/18 18:37:46;;;;;;;15.37;14.27;;;25.40;80.10;;;;;;10474566;28;20216;-79
2022/08/18 18:42:49;;;;;;;15.00;13.80;;;25.40;79.40;;;;;;10482839;28;20556;-80
2022/08/18 18:47:59;;;;;;;14.70;13.70;;;25.30;79.50;;;;;;10473921;28;20229;-80
2022/08/18 18:53:11;;;;;;;13.30;12.40;;;25.30;79.50;;;;;;10495344;28;20364;-80
2022/08/18 18:58:25;;;;;;;14.10;13.10;;;25.30;79.40;;;;;;10503339;28;20304;-80
2022/08/18 19:03:32;;;;;;;14.87;13.87;;;25.30;79.20;;;;;;10482034;28;20213;-80
2022/08/18 19:08:42;;;;;;;16.00;14.87;;;25.30;79.50;;;;;;10476794;28;20645;-80
2022/08/18 19:13:53;;;;;;;15.67;14.67;;;25.20;79.80;;;;;;10473947;28;20182;-82
2022/08/18 19:19:00;;;;;;;14.40;13.40;;;25.20;80.00;;;;;;10465401;28;20304;-82
2022/08/18 19:24:08;;;;;;;15.30;14.10;;;25.10;79.90;;;;;;10465237;28;20220;-81
2022/08/18 19:29:15;;;;;;;17.23;16.03;;;25.10;79.40;;;;;;10547745;22;20223;-79
2022/08/18 19:34:25;;;;;;;19.80;17.47;;;25.10;79.00;;;;;;10537724;28;20215;-79
2022/08/18 19:39:34;;;;;;;16.03;14.80;;;25.10;78.90;;;;;;10464905;28;20226;-79
2022/08/18 19:44:43;;;;;;;16.67;15.27;;;25.00;78.80;;;;;;10480095;28;20231;-80
2022/08/18 19:49:56;;;;;;;16.50;15.30;;;25.00;78.90;;;;;;10474161;28;20249;-81
2022/08/18 19:55:10;;;;;;;16.03;14.93;;;25.00;78.60;;;;;;10509785;28;20275;-80
2022/08/18 20:00:21;;;;;;;16.17;15.00;;;25.00;79.40;;;;;;10498965;28;20213;-80
2022/08/18 20:05:32;;;;;;;15.50;14.40;;;25.00;79.00;;;;;;10456701;28;20228;-79
2022/08/18 20:11:00;;;;;;;16.30;15.10;;;24.90;79.60;;;;;;10458652;28;20217;-80
2022/08/18 20:16:25;;;;;;;15.97;14.87;;;24.90;79.30;;;;;;10469695;28;20190;-80
2022/08/18 20:21:44;;;;;;;15.07;13.67;;;24.90;79.50;;;;;;10462740;28;20205;-79
2022/08/18 20:26:49;;;;;;;16.27;15.07;;;24.80;80.50;;;;;;10474711;28;20704;-80
2022/08/18 20:31:59;;;;;;;14.77;13.77;;;24.80;79.20;;;;;;10512031;28;20261;-80
2022/08/18 20:37:08;;;;;;;13.97;12.87;;;24.80;80.20;;;;;;10472720;28;20646;-81
2022/08/18 20:42:43;;;;;;;14.40;13.30;;;24.80;80.20;;;;;;10505142;28;20196;-79
2022/08/18 20:48:13;;;;;;;14.50;13.40;;;24.70;79.90;;;;;;10454468;28;20263;-81
2022/08/18 20:53:29;;;;;;;13.40;12.30;;;24.70;80.30;;;;;;10497440;28;20192;-80
2022/08/18 20:58:36;;;;;;;13.60;12.40;;;24.60;81.00;;;;;;10490030;28;20224;-81
2022/08/18 21:03:43;;;;;;;17.70;13.07;;;24.60;80.90;;;;;;10442633;28;20225;-80
2022/08/18 21:08:49;;;;;;;13.27;12.17;;;24.50;80.10;;;;;;10481392;28;20311;-81
2022/08/18 21:13:55;;;;;;;13.40;12.37;;;24.50;79.90;;;;;;10442561;28;20284;-81
2022/08/18 21:19:02;;;;;;;12.73;11.73;;;24.40;81.00;;;;;;10481669;28;20248;-80
2022/08/18 21:24:06;;;;;;;13.50;12.50;;;24.40;81.00;;;;;;10464855;28;20426;-82
2022/08/18 21:29:10;;;;;;;13.77;12.73;;;24.40;80.70;;;;;;10500386;28;20247;-82
2022/08/18 21:34:28;;;;;;;14.00;12.90;;;24.40;80.20;;;;;;10461975;28;20225;-82
2022/08/18 21:39:30;;;;;;;14.60;13.43;;;24.40;81.10;;;;;;10440694;28;20746;-82
2022/08/18 21:44:40;;;;;;;14.43;13.33;;;24.40;80.20;;;;;;10440761;28;20205;-82
2022/08/18 21:49:58;;;;;;;13.33;12.23;;;24.30;80.80;;;;;;10470089;28;20696;-81
2022/08/18 21:55:04;;;;;;;15.30;14.10;;;24.30;80.90;;;;;;10488615;28;20192;-81
2022/08/18 22:00:28;;;;;;;14.60;13.30;;;24.30;80.30;;;;;;10520173;28;20212;-81
2022/08/18 22:05:33;;;;;;;15.47;14.17;;;24.30;80.80;;;;;;10448842;28;20287;-81
2022/08/18 22:15:55;;;;;;;14.83;13.73;;;24.30;80.10;;;;;;10478733;28;20207;-81
2022/08/18 22:21:00;;;;;;;14.73;13.63;;;24.30;80.80;;;;;;10504230;28;20244;-80
2022/08/18 22:26:07;;;;;;;16.43;15.13;;;24.20;81.00;;;;;;10469787;28;20212;-80
2022/08/18 22:31:10;;;;;;;16.07;14.77;;;24.20;80.70;;;;;;10488277;28;20232;-80
2022/08/18 22:36:17;;;;;;;14.50;13.40;;;24.20;80.20;;;;;;10443578;28;20188;-79
2022/08/18 22:41:21;;;;;;;14.20;13.10;;;24.20;80.10;;;;;;10492760;28;20193;-79
2022/08/18 22:46:24;;;;;;;15.37;14.17;;;24.20;80.60;;;;;;10462698;28;20310;-81
2022/08/18 22:51:31;;;;;;;15.80;14.50;;;24.20;80.40;;;;;;10473816;28;20194;-79
2022/08/18 22:56:33;;;;;;;16.73;15.27;;;24.10;80.10;;;;;;10498675;28;20304;-80
2022/08/18 23:01:36;;;;;;;16.40;15.00;;;24.20;79.00;;;;;;10507105;28;20540;-79
2022/08/18 23:06:39;;;;;;;15.73;14.33;;;24.10;80.20;;;;;;10463745;28;20285;-79
2022/08/18 23:11:42;;;;;;;16.07;14.77;;;24.00;79.00;;;;;;10474950;28;20201;-81
2022/08/18 23:16:46;;;;;;;14.93;13.63;;;24.00;79.30;;;;;;10447591;28;20235;-81
2022/08/18 23:21:50;;;;;;;15.13;13.90;;;24.00;80.30;;;;;;10494096;28;20204;-79
2022/08/18 23:26:52;;;;;;;17.30;15.90;;;24.00;81.20;;;;;;10486486;28;20226;-81
2022/08/18 23:31:54;;;;;;;16.77;15.37;;;24.00;80.50;;;;;;10479545;28;20189;-81
2022/08/18 23:37:00;;;;;;;16.80;15.50;;;24.00;80.20;;;;;;10460175;28;20209;-80
2022/08/18 23:42:05;;;;;;;18.33;16.77;;;23.90;81.40;;;;;;10480342;28;20188;-81
2022/08/18 23:47:07;;;;;;;15.53;14.30;;;24.00;80.70;;;;;;10494484;28;20254;-79
2022/08/18 23:52:10;;;;;;;15.97;14.70;;;23.90;81.60;;;;;;10505682;28;20231;-80
2022/08/18 23:57:13;;;;;;;16.93;15.47;;;23.90;81.10;;;;;;10480125;28;20276;-80
